Ana Sayfa
METAR-TAF:

METAR-TAF

Havaalanları :

Bangkok, Tayland

Enlem: 13-54-45N, Boylam: 100-36-24E, yükseklik: 4 m

Güncel hava durumu gözlemi

Rapor saat 03:00 UTC de 36 dakika önce yapıldı.
Rüzgar güneybatıdan 7 kt, güney/güneybatı ve batı arasında değişken
Sıcaklık 35°C
Nem 47%
Basınç 1009 hPa
Görüş mesafesi 10 km veya daha fazla
3000 ft yükseklikte az bulutlu

METAR: VTBD 180300Z 23007KT 200V270 9999 FEW030 35/22 Q1009 NOSIG

Saat: 10:36 (03:36 UTC)

Tahmin

Rapor saat 23:00 UTC de 4 saat ve 36 dakika önce yapıldı.
Ayın 18'si saat 00 UTC'den ayın 19'si saat 06 UTC'ye kadar geçerli Tahmin
Rüzgar güneydan 10 kt
Görüş mesafesi 10 km veya daha fazla
2000 ft yükseklikte az bulutlu

TAF: VTBD 172300Z 1800/1906 19010KT 9999 FEW020

4.000'den fazla havaalanı için hava durumu gözlemleri ve tahminleri (METAR ve TAF raporları).

Kullanılabilir istasyonlar harita üzerinde sarı ve kırmızı noktalarla gösterilir.

İstasyonun adını görmek için fareyi noktanın üzerinde gezdirin.

Sonrasında hava gözlem ve tahminlerini görmek için tıklayın.

Haritayı değiştirmek için: yaklaştırmak için siyah artı işaretli yeşil düğmeye ve uzaklaştırmak için de eksi işaretli düğmeye hızla tıklayın; bitişik haritalar için yeşil okları kullanın.


METAR-TAF: